sensor_id;sensor_type;location;lat;lon;timestamp;pressure;altitude;pressure_sealevel;temperature;humidity
68230;BME280;55048;52.220;5.160;2023-03-01T00:01:08;103131.16;;;1.92;74.78
68230;BME280;55048;52.220;5.160;2023-03-01T00:03:34;102904.00;;;0.60;74.29
68230;BME280;55048;52.220;5.160;2023-03-01T00:06:00;103148.88;;;2.11;74.46
68230;BME280;55048;52.220;5.160;2023-03-01T00:08:26;103087.94;;;1.64;74.60
68230;BME280;55048;52.220;5.160;2023-03-01T00:13:30;103171.31;;;2.04;74.39
68230;BME280;55048;52.220;5.160;2023-03-01T00:15:55;103099.84;;;1.57;74.93
68230;BME280;55048;52.220;5.160;2023-03-01T00:18:21;103179.00;;;1.96;74.47
68230;BME280;55048;52.220;5.160;2023-03-01T00:20:54;103020.03;;;1.16;74.73
68230;BME280;55048;52.220;5.160;2023-03-01T00:23:20;103165.97;;;1.94;75.19
68230;BME280;55048;52.220;5.160;2023-03-01T00:25:46;103017.66;;;1.02;75.17
68230;BME280;55048;52.220;5.160;2023-03-01T00:28:11;103007.56;;;1.09;75.11
68230;BME280;55048;52.220;5.160;2023-03-01T00:30:37;103101.13;;;1.63;74.75
68230;BME280;55048;52.220;5.160;2023-03-01T00:33:03;102997.31;;;1.06;74.98
68230;BME280;55048;52.220;5.160;2023-03-01T00:35:28;103152.97;;;1.93;75.15
68230;BME280;55048;52.220;5.160;2023-03-01T00:37:54;103119.00;;;1.80;74.79
68230;BME280;55048;52.220;5.160;2023-03-01T00:40:34;103123.56;;;1.78;74.88
68230;BME280;55048;52.220;5.160;2023-03-01T00:43:00;103115.09;;;1.74;74.67
68230;BME280;55048;52.220;5.160;2023-03-01T00:45:26;103037.09;;;1.22;74.42
68230;BME280;55048;52.220;5.160;2023-03-01T00:47:52;103139.28;;;1.78;74.93
68230;BME280;55048;52.220;5.160;2023-03-01T00:50:18;102916.13;;;0.27;74.85
68230;BME280;55048;52.220;5.160;2023-03-01T00:52:45;103128.06;;;1.87;74.54
68230;BME280;55048;52.220;5.160;2023-03-01T00:55:11;103051.38;;;1.29;74.75
68230;BME280;55048;52.220;5.160;2023-03-01T00:57:36;103096.75;;;1.63;75.08
68230;BME280;55048;52.220;5.160;2023-03-01T01:00:06;103091.88;;;1.59;75.08
68230;BME280;55048;52.220;5.160;2023-03-01T01:02:33;103075.34;;;1.36;74.89
68230;BME280;55048;52.220;5.160;2023-03-01T01:04:59;103127.25;;;1.75;75.12
68230;BME280;55048;52.220;5.160;2023-03-01T01:07:25;103137.03;;;1.73;74.86
68230;BME280;55048;52.220;5.160;2023-03-01T01:09:50;103124.28;;;1.69;75.19
68230;BME280;55048;52.220;5.160;2023-03-01T01:12:16;102966.84;;;0.71;75.39
68230;BME280;55048;52.220;5.160;2023-03-01T01:14:41;103048.66;;;1.08;75.44
68230;BME280;55048;52.220;5.160;2023-03-01T01:17:08;103092.09;;;1.44;74.69
68230;BME280;55048;52.220;5.160;2023-03-01T01:19:34;103068.28;;;1.25;75.57
68230;BME280;55048;52.220;5.160;2023-03-01T01:21:59;103114.50;;;1.60;75.53
68230;BME280;55048;52.220;5.160;2023-03-01T01:24:24;103063.41;;;1.32;75.62
68230;BME280;55048;52.220;5.160;2023-03-01T01:26:50;103051.88;;;1.23;75.75
68230;BME280;55048;52.220;5.160;2023-03-01T01:29:16;103036.47;;;1.07;75.86
68230;BME280;55048;52.220;5.160;2023-03-01T01:31:42;103098.53;;;1.51;75.32
68230;BME280;55048;52.220;5.160;2023-03-01T01:34:13;103028.53;;;1.09;75.14
68230;BME280;55048;52.220;5.160;2023-03-01T01:36:39;102878.75;;;0.14;75.06
68230;BME280;55048;52.220;5.160;2023-03-01T01:39:05;103056.50;;;1.31;75.11
68230;BME280;55048;52.220;5.160;2023-03-01T01:41:31;103089.03;;;1.50;74.84
68230;BME280;55048;52.220;5.160;2023-03-01T01:44:35;102989.22;;;0.86;75.34
68230;BME280;55048;52.220;5.160;2023-03-01T01:47:06;103059.72;;;1.23;74.98
68230;BME280;55048;52.220;5.160;2023-03-01T01:49:38;103088.78;;;1.42;75.27
68230;BME280;55048;52.220;5.160;2023-03-01T01:55:03;102955.28;;;0.51;75.46
68230;BME280;55048;52.220;5.160;2023-03-01T01:57:40;102949.13;;;0.52;75.24
68230;BME280;55048;52.220;5.160;2023-03-01T02:00:13;102923.53;;;0.33;75.01
68230;BME280;55048;52.220;5.160;2023-03-01T02:02:41;103052.44;;;1.15;75.04
68230;BME280;55048;52.220;5.160;2023-03-01T02:05:45;103046.75;;;1.10;75.77
68230;BME280;55048;52.220;5.160;2023-03-01T02:08:14;103078.69;;;1.26;75.61
68230;BME280;55048;52.220;5.160;2023-03-01T02:10:42;103029.25;;;0.99;75.61
68230;BME280;55048;52.220;5.160;2023-03-01T02:13:09;103014.72;;;0.84;75.36
68230;BME280;55048;52.220;5.160;2023-03-01T02:15:38;103006.50;;;0.77;75.40
68230;BME280;55048;52.220;5.160;2023-03-01T02:18:07;103070.34;;;1.21;75.68
68230;BME280;55048;52.220;5.160;2023-03-01T02:23:24;103035.06;;;0.92;75.77
68230;BME280;55048;52.220;5.160;2023-03-01T02:25:56;103033.88;;;0.96;75.59
68230;BME280;55048;52.220;5.160;2023-03-01T02:30:57;103070.09;;;1.13;75.70
68230;BME280;55048;52.220;5.160;2023-03-01T02:33:41;102967.91;;;0.46;75.56
68230;BME280;55048;52.220;5.160;2023-03-01T02:36:12;103066.16;;;1.08;75.92
68230;BME280;55048;52.220;5.160;2023-03-01T02:38:43;102943.38;;;0.24;76.23
68230;BME280;55048;52.220;5.160;2023-03-01T02:41:13;102995.19;;;0.66;75.95
68230;BME280;55048;52.220;5.160;2023-03-01T02:43:40;102962.66;;;0.35;76.17
68230;BME280;55048;52.220;5.160;2023-03-01T02:46:15;103008.28;;;0.66;76.25
68230;BME280;55048;52.220;5.160;2023-03-01T02:48:53;103012.56;;;0.67;76.15
68230;BME280;55048;52.220;5.160;2023-03-01T02:51:45;103023.50;;;0.83;76.11
68230;BME280;55048;52.220;5.160;2023-03-01T02:54:25;103015.31;;;0.76;75.50
68230;BME280;55048;52.220;5.160;2023-03-01T02:56:54;103032.31;;;0.82;75.96
68230;BME280;55048;52.220;5.160;2023-03-01T02:59:24;103041.03;;;0.94;75.70
68230;BME280;55048;52.220;5.160;2023-03-01T03:01:52;103036.63;;;0.94;75.48
68230;BME280;55048;52.220;5.160;2023-03-01T03:04:18;103035.19;;;0.90;76.15
68230;BME280;55048;52.220;5.160;2023-03-01T03:06:49;102950.28;;;0.37;76.04
68230;BME280;55048;52.220;5.160;2023-03-01T03:09:16;102875.41;;;-0.11;75.74
68230;BME280;55048;52.220;5.160;2023-03-01T03:11:42;103018.88;;;0.75;75.88
68230;BME280;55048;52.220;5.160;2023-03-01T03:14:13;103034.72;;;0.85;76.05
68230;BME280;55048;52.220;5.160;2023-03-01T03:16:42;103028.66;;;0.85;76.04
68230;BME280;55048;52.220;5.160;2023-03-01T03:19:10;103029.56;;;0.84;76.24
68230;BME280;55048;52.220;5.160;2023-03-01T03:21:36;102866.19;;;-0.39;75.89
68230;BME280;55048;52.220;5.160;2023-03-01T03:24:01;102729.88;;;-1.03;75.98
68230;BME280;55048;52.220;5.160;2023-03-01T03:26:27;103003.50;;;0.60;76.20
68230;BME280;55048;52.220;5.160;2023-03-01T03:28:53;102966.97;;;0.47;76.20
68230;BME280;55048;52.220;5.160;2023-03-01T03:31:18;102996.81;;;0.56;76.51
68230;BME280;55048;52.220;5.160;2023-03-01T03:33:44;102939.47;;;0.30;75.96
68230;BME280;55048;52.220;5.160;2023-03-01T03:36:09;102929.91;;;0.18;76.08
68230;BME280;55048;52.220;5.160;2023-03-01T03:38:44;102982.53;;;0.48;76.55
68230;BME280;55048;52.220;5.160;2023-03-01T03:41:11;102960.41;;;0.41;76.32
68230;BME280;55048;52.220;5.160;2023-03-01T03:43:38;102873.97;;;-0.15;76.31
68230;BME280;55048;52.220;5.160;2023-03-01T03:46:05;102991.59;;;0.56;75.99
68230;BME280;55048;52.220;5.160;2023-03-01T03:48:37;103003.13;;;0.64;76.31
68230;BME280;55048;52.220;5.160;2023-03-01T03:51:03;102986.81;;;0.49;76.31
68230;BME280;55048;52.220;5.160;2023-03-01T03:53:31;103001.84;;;0.59;76.50
68230;BME280;55048;52.220;5.160;2023-03-01T03:55:56;103003.63;;;0.58;76.57
68230;BME280;55048;52.220;5.160;2023-03-01T03:58:24;103002.91;;;0.56;76.50
68230;BME280;55048;52.220;5.160;2023-03-01T04:00:55;102999.44;;;0.44;76.51
68230;BME280;55048;52.220;5.160;2023-03-01T04:03:22;102808.97;;;-0.66;76.65
68230;BME280;55048;52.220;5.160;2023-03-01T04:05:48;103006.59;;;0.54;76.47
68230;BME280;55048;52.220;5.160;2023-03-01T04:08:16;102937.06;;;0.16;76.36
68230;BME280;55048;52.220;5.160;2023-03-01T04:10:45;102999.78;;;0.51;76.92
68230;BME280;55048;52.220;5.160;2023-03-01T04:13:13;102993.84;;;0.49;76.65
68230;BME280;55048;52.220;5.160;2023-03-01T04:15:39;102929.53;;;0.00;76.81
68230;BME280;55048;52.220;5.160;2023-03-01T04:18:05;103014.91;;;0.47;76.55
68230;BME280;55048;52.220;5.160;2023-03-01T04:20:33;102986.09;;;0.36;76.53
68230;BME280;55048;52.220;5.160;2023-03-01T04:23:03;102990.75;;;0.44;76.87
68230;BME280;55048;52.220;5.160;2023-03-01T04:25:42;102998.00;;;0.40;77.18
68230;BME280;55048;52.220;5.160;2023-03-01T04:28:10;102985.94;;;0.15;76.75
68230;BME280;55048;52.220;5.160;2023-03-01T04:30:36;102842.22;;;-0.68;76.44
68230;BME280;55048;52.220;5.160;2023-03-01T04:33:07;102995.59;;;0.37;76.46
68230;BME280;55048;52.220;5.160;2023-03-01T04:35:34;102929.63;;;-0.13;76.49
68230;BME280;55048;52.220;5.160;2023-03-01T04:38:00;102907.59;;;-0.33;77.18
68230;BME280;55048;52.220;5.160;2023-03-01T04:40:25;102940.91;;;-0.12;76.79
68230;BME280;55048;52.220;5.160;2023-03-01T04:42:50;103001.44;;;0.30;76.79
68230;BME280;55048;52.220;5.160;2023-03-01T04:45:16;102845.19;;;-0.61;76.68
68230;BME280;55048;52.220;5.160;2023-03-01T04:47:43;102917.22;;;-0.22;76.59
68230;BME280;55048;52.220;5.160;2023-03-01T04:50:12;102994.75;;;0.25;77.06
68230;BME280;55048;52.220;5.160;2023-03-01T04:52:38;102928.53;;;-0.21;76.26
68230;BME280;55048;52.220;5.160;2023-03-01T04:55:04;102913.31;;;-0.28;76.34
68230;BME280;55048;52.220;5.160;2023-03-01T04:57:30;102848.41;;;-0.69;76.17
68230;BME280;55048;52.220;5.160;2023-03-01T04:59:56;102880.78;;;-0.47;76.23
68230;BME280;55048;52.220;5.160;2023-03-01T05:02:21;102953.78;;;-0.09;76.56
68230;BME280;55048;52.220;5.160;2023-03-01T05:04:46;102973.63;;;0.05;76.51
68230;BME280;55048;52.220;5.160;2023-03-01T05:07:12;102646.09;;;-1.94;76.36
68230;BME280;55048;52.220;5.160;2023-03-01T05:09:38;102965.44;;;0.09;77.03
68230;BME280;55048;52.220;5.160;2023-03-01T05:12:04;102894.91;;;-0.50;76.99
68230;BME280;55048;52.220;5.160;2023-03-01T05:14:30;102928.75;;;-0.24;77.14
68230;BME280;55048;52.220;5.160;2023-03-01T05:16:55;102954.25;;;-0.04;77.08
68230;BME280;55048;52.220;5.160;2023-03-01T05:19:29;102644.94;;;-1.90;76.88
68230;BME280;55048;52.220;5.160;2023-03-01T05:21:57;102962.25;;;0.06;77.46
68230;BME280;55048;52.220;5.160;2023-03-01T05:24:33;102954.41;;;0.06;77.26
68230;BME280;55048;52.220;5.160;2023-03-01T05:27:00;102891.78;;;-0.31;77.14
68230;BME280;55048;52.220;5.160;2023-03-01T05:29:26;102946.56;;;0.06;77.23
68230;BME280;55048;52.220;5.160;2023-03-01T05:31:53;102967.56;;;0.04;77.23
68230;BME280;55048;52.220;5.160;2023-03-01T05:34:25;102939.75;;;0.03;77.39
68230;BME280;55048;52.220;5.160;2023-03-01T05:36:52;102773.00;;;-0.97;77.48
68230;BME280;55048;52.220;5.160;2023-03-01T05:39:23;102935.59;;;0.01;77.30
68230;BME280;55048;52.220;5.160;2023-03-01T05:41:52;102932.16;;;0.00;77.35
68230;BME280;55048;52.220;5.160;2023-03-01T05:44:17;102829.63;;;-0.74;77.13
68230;BME280;55048;52.220;5.160;2023-03-01T05:46:43;102862.75;;;-0.39;77.72
68230;BME280;55048;52.220;5.160;2023-03-01T05:49:11;102792.63;;;-0.92;77.25
68230;BME280;55048;52.220;5.160;2023-03-01T05:51:39;102912.38;;;-0.15;77.58
68230;BME280;55048;52.220;5.160;2023-03-01T05:54:04;102935.94;;;-0.04;77.45
68230;BME280;55048;52.220;5.160;2023-03-01T05:56:35;102760.63;;;-1.07;77.13
68230;BME280;55048;52.220;5.160;2023-03-01T05:59:01;102918.69;;;-0.07;78.36
68230;BME280;55048;52.220;5.160;2023-03-01T06:01:27;102909.59;;;-0.25;77.71
68230;BME280;55048;52.220;5.160;2023-03-01T06:03:52;102907.72;;;-0.23;77.83
68230;BME280;55048;52.220;5.160;2023-03-01T06:06:18;102920.91;;;-0.24;77.97
68230;BME280;55048;52.220;5.160;2023-03-01T06:08:43;102907.94;;;-0.26;77.95
68230;BME280;55048;52.220;5.160;2023-03-01T06:11:09;102925.44;;;-0.15;78.09
68230;BME280;55048;52.220;5.160;2023-03-01T06:13:34;102712.41;;;-1.49;77.86
68230;BME280;55048;52.220;5.160;2023-03-01T06:16:00;102914.97;;;-0.27;77.95
68230;BME280;55048;52.220;5.160;2023-03-01T06:18:25;102865.09;;;-0.47;78.06
68230;BME280;55048;52.220;5.160;2023-03-01T06:20:55;102923.78;;;-0.16;77.66
68230;BME280;55048;52.220;5.160;2023-03-01T06:23:22;102929.84;;;-0.16;77.81
68230;BME280;55048;52.220;5.160;2023-03-01T06:25:48;102722.16;;;-1.40;77.88
68230;BME280;55048;52.220;5.160;2023-03-01T06:28:13;102776.63;;;-1.11;77.52
68230;BME280;55048;52.220;5.160;2023-03-01T06:30:39;102888.19;;;-0.41;77.40
68230;BME280;55048;52.220;5.160;2023-03-01T06:33:04;102864.38;;;-0.49;77.36
68230;BME280;55048;52.220;5.160;2023-03-01T06:35:30;102933.28;;;-0.15;77.75
68230;BME280;55048;52.220;5.160;2023-03-01T06:37:58;102896.78;;;-0.52;77.53
68230;BME280;55048;52.220;5.160;2023-03-01T06:40:24;102885.78;;;-0.44;77.66
68230;BME280;55048;52.220;5.160;2023-03-01T06:42:50;102879.31;;;-0.52;77.82
68230;BME280;55048;52.220;5.160;2023-03-01T06:45:17;102834.69;;;-0.84;77.80
68230;BME280;55048;52.220;5.160;2023-03-01T06:47:43;102895.19;;;-0.42;78.51
68230;BME280;55048;52.220;5.160;2023-03-01T06:50:09;102857.78;;;-0.66;78.27
68230;BME280;55048;52.220;5.160;2023-03-01T06:52:35;102891.69;;;-0.54;79.03
68230;BME280;55048;52.220;5.160;2023-03-01T06:55:01;102937.81;;;-0.17;78.66
68230;BME280;55048;52.220;5.160;2023-03-01T06:57:27;102929.72;;;-0.14;78.74
68230;BME280;55048;52.220;5.160;2023-03-01T06:59:52;102808.84;;;-0.99;79.25
68230;BME280;55048;52.220;5.160;2023-03-01T07:02:18;102770.91;;;-1.16;79.01
68230;BME280;55048;52.220;5.160;2023-03-01T07:04:43;102934.50;;;-0.08;78.82
68230;BME280;55048;52.220;5.160;2023-03-01T07:07:09;102929.63;;;-0.02;78.78
68230;BME280;55048;52.220;5.160;2023-03-01T07:09:34;102941.31;;;0.06;78.83
68230;BME280;55048;52.220;5.160;2023-03-01T07:12:00;102911.81;;;0.04;78.74
68230;BME280;55048;52.220;5.160;2023-03-01T07:14:25;102765.47;;;-0.78;78.80
68230;BME280;55048;52.220;5.160;2023-03-01T07:16:54;102847.81;;;-0.26;78.75
68230;BME280;55048;52.220;5.160;2023-03-01T07:19:20;102934.09;;;0.32;78.17
68230;BME280;55048;52.220;5.160;2023-03-01T07:21:46;102890.19;;;0.02;78.23
68230;BME280;55048;52.220;5.160;2023-03-01T07:24:11;102901.75;;;0.33;78.23
68230;BME280;55048;52.220;5.160;2023-03-01T07:26:37;102812.38;;;-0.19;77.87
68230;BME280;55048;52.220;5.160;2023-03-01T07:29:04;102721.06;;;-0.78;77.45
68230;BME280;55048;52.220;5.160;2023-03-01T07:31:29;102611.97;;;-1.32;77.20
68230;BME280;55048;52.220;5.160;2023-03-01T07:33:55;102938.41;;;0.89;77.34
68230;BME280;55048;52.220;5.160;2023-03-01T07:36:21;102872.00;;;0.45;76.80
68230;BME280;55048;52.220;5.160;2023-03-01T07:38:47;102916.38;;;0.80;77.57
68230;BME280;55048;52.220;5.160;2023-03-01T07:41:13;102935.25;;;1.06;77.42
68230;BME280;55048;52.220;5.160;2023-03-01T07:43:38;102853.06;;;0.75;77.37
68230;BME280;55048;52.220;5.160;2023-03-01T07:46:04;102892.03;;;1.00;77.14
68230;BME280;55048;52.220;5.160;2023-03-01T07:48:30;102934.97;;;1.32;77.75
68230;BME280;55048;52.220;5.160;2023-03-01T07:51:00;102948.00;;;1.54;77.46
68230;BME280;55048;52.220;5.160;2023-03-01T07:53:26;102936.75;;;1.63;78.23
68230;BME280;55048;52.220;5.160;2023-03-01T07:56:12;102952.56;;;1.73;77.57
68230;BME280;55048;52.220;5.160;2023-03-01T07:58:40;102909.69;;;1.63;76.89
68230;BME280;55048;52.220;5.160;2023-03-01T08:01:07;102945.44;;;1.96;76.33
68230;BME280;55048;52.220;5.160;2023-03-01T08:03:34;102944.47;;;1.97;76.82
68230;BME280;55048;52.220;5.160;2023-03-01T08:06:01;102948.81;;;2.08;76.65
68230;BME280;55048;52.220;5.160;2023-03-01T08:08:26;102944.19;;;2.21;76.28
68230;BME280;55048;52.220;5.160;2023-03-01T08:10:52;102807.16;;;1.45;76.27
68230;BME280;55048;52.220;5.160;2023-03-01T08:13:17;102839.78;;;1.73;76.01
68230;BME280;55048;52.220;5.160;2023-03-01T08:15:48;102839.13;;;1.60;75.76
68230;BME280;55048;52.220;5.160;2023-03-01T08:18:14;102921.31;;;2.33;75.75
68230;BME280;55048;52.220;5.160;2023-03-01T08:20:40;102959.22;;;2.70;75.59
68230;BME280;55048;52.220;5.160;2023-03-01T08:23:05;102889.84;;;2.42;75.46
68230;BME280;55048;52.220;5.160;2023-03-01T08:25:30;102952.66;;;2.86;75.18
68230;BME280;55048;52.220;5.160;2023-03-01T08:27:56;102906.66;;;2.70;75.06
68230;BME280;55048;52.220;5.160;2023-03-01T08:30:21;102903.50;;;2.67;74.42
68230;BME280;55048;52.220;5.160;2023-03-01T08:32:49;102941.19;;;2.96;73.31
68230;BME280;55048;52.220;5.160;2023-03-01T08:35:14;102787.16;;;2.05;74.28
68230;BME280;55048;52.220;5.160;2023-03-01T08:37:40;102753.16;;;1.94;73.50
68230;BME280;55048;52.220;5.160;2023-03-01T08:40:06;102825.44;;;2.38;73.07
68230;BME280;55048;52.220;5.160;2023-03-01T08:42:35;102873.38;;;2.71;72.52
68230;BME280;55048;52.220;5.160;2023-03-01T08:45:00;102894.84;;;2.95;73.14
68230;BME280;55048;52.220;5.160;2023-03-01T08:47:26;102902.75;;;3.05;71.67
68230;BME280;55048;52.220;5.160;2023-03-01T08:49:51;102893.72;;;2.98;72.52
68230;BME280;55048;52.220;5.160;2023-03-01T08:52:19;102841.97;;;2.89;72.05
68230;BME280;55048;52.220;5.160;2023-03-01T08:54:44;102861.09;;;3.10;71.61
68230;BME280;55048;52.220;5.160;2023-03-01T08:57:10;102834.09;;;2.98;70.37
68230;BME280;55048;52.220;5.160;2023-03-01T08:59:35;102898.91;;;3.38;70.84
68230;BME280;55048;52.220;5.160;2023-03-01T09:02:04;102783.06;;;2.91;71.22
68230;BME280;55048;52.220;5.160;2023-03-01T09:04:29;102917.84;;;3.80;70.93
68230;BME280;55048;52.220;5.160;2023-03-01T09:06:55;102853.22;;;3.39;70.93
68230;BME280;55048;52.220;5.160;2023-03-01T09:09:20;102892.78;;;3.67;70.29
68230;BME280;55048;52.220;5.160;2023-03-01T09:11:46;102915.91;;;3.92;70.38
68230;BME280;55048;52.220;5.160;2023-03-01T09:14:12;102836.88;;;3.55;69.83
68230;BME280;55048;52.220;5.160;2023-03-01T09:16:38;102916.44;;;3.96;68.60
68230;BME280;55048;52.220;5.160;2023-03-01T09:19:05;102896.72;;;4.09;70.14
68230;BME280;55048;52.220;5.160;2023-03-01T09:21:30;102848.16;;;3.84;69.35
68230;BME280;55048;52.220;5.160;2023-03-01T09:23:57;102788.00;;;3.52;68.52
68230;BME280;55048;52.220;5.160;2023-03-01T09:26:23;102816.06;;;3.71;68.66
68230;BME280;55048;52.220;5.160;2023-03-01T09:28:53;102789.09;;;3.60;68.57
68230;BME280;55048;52.220;5.160;2023-03-01T09:31:20;102785.34;;;3.62;67.46
68230;BME280;55048;52.220;5.160;2023-03-01T09:33:47;102862.03;;;4.24;67.08
68230;BME280;55048;52.220;5.160;2023-03-01T09:36:16;102878.63;;;4.34;66.41
68230;BME280;55048;52.220;5.160;2023-03-01T09:38:42;102876.78;;;4.44;66.34
68230;BME280;55048;52.220;5.160;2023-03-01T09:44:30;102883.56;;;4.47;64.14
68230;BME280;55048;52.220;5.160;2023-03-01T09:46:58;102873.72;;;4.49;64.59
68230;BME280;55048;52.220;5.160;2023-03-01T09:49:30;102891.19;;;4.50;64.02
68230;BME280;55048;52.220;5.160;2023-03-01T09:52:14;102894.91;;;4.57;63.26
68230;BME280;55048;52.220;5.160;2023-03-01T09:54:45;102841.94;;;4.23;63.46
68230;BME280;55048;52.220;5.160;2023-03-01T10:05:06;102884.00;;;4.70;62.50
68230;BME280;55048;52.220;5.160;2023-03-01T10:10:32;102774.59;;;4.20;61.01
68230;BME280;55048;52.220;5.160;2023-03-01T10:13:04;102861.47;;;4.75;59.83
68230;BME280;55048;52.220;5.160;2023-03-01T10:15:39;102816.56;;;4.49;59.48
68230;BME280;55048;52.220;5.160;2023-03-01T10:18:15;102822.91;;;4.56;58.28
68230;BME280;55048;52.220;5.160;2023-03-01T10:20:43;102874.88;;;5.09;60.07
68230;BME280;55048;52.220;5.160;2023-03-01T10:23:11;102869.28;;;5.12;59.90
68230;BME280;55048;52.220;5.160;2023-03-01T10:25:49;102805.75;;;4.70;57.38
68230;BME280;55048;52.220;5.160;2023-03-01T10:28:29;102823.16;;;4.99;58.46
68230;BME280;55048;52.220;5.160;2023-03-01T10:30:57;102859.19;;;5.26;59.00
68230;BME280;55048;52.220;5.160;2023-03-01T10:33:27;102810.50;;;5.20;58.68
68230;BME280;55048;52.220;5.160;2023-03-01T10:35:54;102813.44;;;5.17;57.12
68230;BME280;55048;52.220;5.160;2023-03-01T10:38:20;102796.59;;;5.10;57.03
68230;BME280;55048;52.220;5.160;2023-03-01T10:40:59;102853.97;;;5.52;56.61
68230;BME280;55048;52.220;5.160;2023-03-01T10:43:32;102729.09;;;4.81;55.46
68230;BME280;55048;52.220;5.160;2023-03-01T10:46:31;102858.63;;;5.58;55.89
68230;BME280;55048;52.220;5.160;2023-03-01T10:49:21;102851.41;;;5.60;55.36
68230;BME280;55048;52.220;5.160;2023-03-01T10:51:48;102797.59;;;5.35;55.18
68230;BME280;55048;52.220;5.160;2023-03-01T10:54:30;102835.47;;;5.70;55.17
68230;BME280;55048;52.220;5.160;2023-03-01T10:56:59;102766.03;;;5.25;54.89
68230;BME280;55048;52.220;5.160;2023-03-01T10:59:28;102832.31;;;5.92;55.71
68230;BME280;55048;52.220;5.160;2023-03-01T11:04:56;102822.31;;;6.04;54.58
68230;BME280;55048;52.220;5.160;2023-03-01T11:07:22;102735.63;;;5.65;54.64
68230;BME280;55048;52.220;5.160;2023-03-01T11:09:47;102673.28;;;5.38;54.20
68230;BME280;55048;52.220;5.160;2023-03-01T11:12:14;102713.50;;;5.66;53.59
68230;BME280;55048;52.220;5.160;2023-03-01T11:14:53;102721.78;;;5.71;53.22
68230;BME280;55048;52.220;5.160;2023-03-01T11:17:28;102806.25;;;6.31;52.76
68230;BME280;55048;52.220;5.160;2023-03-01T11:22:35;102757.31;;;6.19;53.11
68230;BME280;55048;52.220;5.160;2023-03-01T11:25:01;102754.28;;;6.06;52.72
68230;BME280;55048;52.220;5.160;2023-03-01T11:27:38;102764.41;;;6.19;53.00
68230;BME280;55048;52.220;5.160;2023-03-01T11:30:19;102744.78;;;6.29;52.01
68230;BME280;55048;52.220;5.160;2023-03-01T11:32:53;102779.72;;;6.57;52.23
68230;BME280;55048;52.220;5.160;2023-03-01T11:35:25;102735.00;;;6.13;51.22
68230;BME280;55048;52.220;5.160;2023-03-01T11:38:21;102771.66;;;6.59;51.37
68230;BME280;55048;52.220;5.160;2023-03-01T11:43:37;102749.13;;;6.30;49.75
68230;BME280;55048;52.220;5.160;2023-03-01T11:46:21;102777.41;;;6.54;50.53
68230;BME280;55048;52.220;5.160;2023-03-01T11:51:41;102761.75;;;6.77;50.40
68230;BME280;55048;52.220;5.160;2023-03-01T12:00:50;102759.75;;;6.71;49.54
68230;BME280;55048;52.220;5.160;2023-03-01T12:04:09;102763.72;;;6.59;48.95
68230;BME280;55048;52.220;5.160;2023-03-01T12:06:32;102766.38;;;6.67;49.18
68230;BME280;55048;52.220;5.160;2023-03-01T12:12:25;102744.06;;;6.94;48.74
68230;BME280;55048;52.220;5.160;2023-03-01T12:18:12;102746.72;;;7.02;48.75
68230;BME280;55048;52.220;5.160;2023-03-01T12:29:14;102703.38;;;7.03;50.05
68230;BME280;55048;52.220;5.160;2023-03-01T12:34:33;102726.72;;;7.00;48.78
68230;BME280;55048;52.220;5.160;2023-03-01T12:37:11;102731.00;;;7.17;49.04
68230;BME280;55048;52.220;5.160;2023-03-01T12:45:41;102725.88;;;7.24;48.03
68230;BME280;55048;52.220;5.160;2023-03-01T12:50:59;102726.00;;;7.38;47.95
68230;BME280;55048;52.220;5.160;2023-03-01T12:53:28;102541.34;;;6.13;47.62
68230;BME280;55048;52.220;5.160;2023-03-01T12:56:00;102683.06;;;6.96;47.44
68230;BME280;55048;52.220;5.160;2023-03-01T12:58:39;102689.00;;;7.14;47.42
68230;BME280;55048;52.220;5.160;2023-03-01T13:01:25;102719.72;;;7.31;47.44
68230;BME280;55048;52.220;5.160;2023-03-01T13:09:27;102707.09;;;7.50;46.67
68230;BME280;55048;52.220;5.160;2023-03-01T13:11:56;102686.31;;;7.22;46.30
68230;BME280;55048;52.220;5.160;2023-03-01T13:16:51;102663.53;;;7.13;47.28
68230;BME280;55048;52.220;5.160;2023-03-01T13:19:27;102592.84;;;6.66;47.22
68230;BME280;55048;52.220;5.160;2023-03-01T13:21:55;102660.53;;;7.24;47.00
68230;BME280;55048;52.220;5.160;2023-03-01T13:24:40;102629.72;;;7.31;47.50
68230;BME280;55048;52.220;5.160;2023-03-01T13:29:45;102662.91;;;7.50;46.66
68230;BME280;55048;52.220;5.160;2023-03-01T13:32:27;102668.53;;;7.55;47.30
68230;BME280;55048;52.220;5.160;2023-03-01T13:34:55;102667.84;;;7.61;47.00
68230;BME280;55048;52.220;5.160;2023-03-01T13:37:32;102594.88;;;7.28;46.91
68230;BME280;55048;52.220;5.160;2023-03-01T13:40:00;102377.94;;;6.02;47.29
68230;BME280;55048;52.220;5.160;2023-03-01T13:42:43;102650.94;;;7.71;46.50
68230;BME280;55048;52.220;5.160;2023-03-01T13:45:19;102548.63;;;6.99;46.32
68230;BME280;55048;52.220;5.160;2023-03-01T13:47:47;102644.34;;;7.66;46.55
68230;BME280;55048;52.220;5.160;2023-03-01T13:50:29;102632.91;;;7.66;46.44
68230;BME280;55048;52.220;5.160;2023-03-01T13:53:00;102597.41;;;7.52;46.67
68230;BME280;55048;52.220;5.160;2023-03-01T13:55:37;102629.00;;;7.85;46.56
68230;BME280;55048;52.220;5.160;2023-03-01T14:01:25;102614.69;;;7.71;46.21
68230;BME280;55048;52.220;5.160;2023-03-01T14:03:51;102571.81;;;7.36;46.41
68230;BME280;55048;52.220;5.160;2023-03-01T14:06:21;102599.03;;;7.53;46.29
68230;BME280;55048;52.220;5.160;2023-03-01T14:08:49;102564.66;;;7.45;46.36
68230;BME280;55048;52.220;5.160;2023-03-01T14:19:28;102592.16;;;7.75;46.36
68230;BME280;55048;52.220;5.160;2023-03-01T14:27:15;102570.91;;;7.83;45.75
68230;BME280;55048;52.220;5.160;2023-03-01T14:29:41;102570.53;;;7.86;45.59
68230;BME280;55048;52.220;5.160;2023-03-01T14:32:20;102512.00;;;7.50;45.93
68230;BME280;55048;52.220;5.160;2023-03-01T14:34:48;102559.66;;;7.81;45.72
68230;BME280;55048;52.220;5.160;2023-03-01T14:37:18;102561.19;;;7.76;44.66
68230;BME280;55048;52.220;5.160;2023-03-01T14:39:43;102526.41;;;7.56;44.83
68230;BME280;55048;52.220;5.160;2023-03-01T14:42:09;102527.34;;;7.32;44.63
68230;BME280;55048;52.220;5.160;2023-03-01T14:44:34;102522.50;;;7.44;45.09